createdAt,value
2018-02-12T00:00:27.992Z,94251.73
2018-02-12T00:03:31.297Z,94249.08
2018-02-12T00:06:34.584Z,94245.87
2018-02-12T00:09:38.677Z,94249.97
2018-02-12T00:12:42.716Z,94257.81
2018-02-12T00:15:45.973Z,94252.91
2018-02-12T00:18:50.008Z,94250.78
2018-02-12T00:21:54.054Z,94252.39
2018-02-12T00:24:57.336Z,94254.59
2018-02-12T00:28:00.600Z,94258.12
2018-02-12T00:31:03.860Z,94265.02
2018-02-12T00:34:07.207Z,94273.30
2018-02-12T00:37:10.484Z,94279.06
2018-02-12T00:40:13.758Z,94282.28
2018-02-12T00:43:17.044Z,94288.33
2018-02-12T00:46:20.313Z,94284.15
2018-02-12T00:49:23.618Z,94277.58
2018-02-12T00:52:28.553Z,94281.36
2018-02-12T00:55:31.849Z,94287.13
2018-02-12T00:58:35.108Z,94285.63
2018-02-12T01:01:38.375Z,94284.25
2018-02-12T01:04:41.641Z,94288.56
2018-02-12T01:07:44.925Z,94288.84
2018-02-12T01:10:48.188Z,94294.35
2018-02-12T01:13:51.453Z,94288.84
2018-02-12T01:16:54.720Z,94286.58
2018-02-12T01:19:58.441Z,94286.25
2018-02-12T01:23:01.710Z,94280.74
2018-02-12T01:26:06.640Z,94280.49
2018-02-12T01:29:10.677Z,94279.53
2018-02-12T01:32:13.943Z,94277.91
2018-02-12T01:35:17.195Z,94275.66
2018-02-12T01:38:20.481Z,94269.84
2018-02-12T01:41:23.741Z,94273.13
2018-02-12T01:44:29.008Z,94267.16
2018-02-12T01:47:33.054Z,94274.86
2018-02-12T01:50:36.309Z,94268.55
2018-02-12T01:53:40.344Z,94265.55
2018-02-12T01:56:43.623Z,94266.58
2018-02-12T01:59:47.653Z,94267.22
2018-02-12T02:02:50.923Z,94268.73
2018-02-12T02:05:54.949Z,94269.08
2018-02-12T02:09:00.224Z,94282.97
2018-02-12T02:12:03.492Z,94275.09
2018-02-12T02:15:07.538Z,94274.48
2018-02-12T02:18:10.792Z,94269.17
2018-02-12T02:21:14.821Z,94269.31
2018-02-12T02:24:18.848Z,94257.05
2018-02-12T02:27:22.113Z,94252.57
2018-02-12T02:30:29.149Z,94252.35
2018-02-12T02:33:32.913Z,94250.55
2018-02-12T02:36:36.964Z,94246.72
2018-02-12T02:39:40.233Z,94252.36
2018-02-12T02:42:44.497Z,94251.80
2018-02-12T02:45:47.965Z,94248.13
2018-02-12T02:48:52.002Z,94244.10
2018-02-12T02:51:55.288Z,94245.52
2018-02-12T02:54:58.557Z,94243.48
2018-02-12T02:58:02.593Z,94242.38
2018-02-12T03:01:05.869Z,94231.98
2018-02-12T03:04:09.905Z,94237.95
2018-02-12T03:07:13.166Z,94243.57
2018-02-12T03:10:16.433Z,94247.41
2018-02-12T03:13:19.689Z,94243.05
2018-02-12T03:16:23.737Z,94245.30
2018-02-12T03:19:27.743Z,94246.72
2018-02-12T03:22:31.732Z,94246.70
2018-02-12T03:25:36.462Z,94248.92
2018-02-12T03:28:40.651Z,94251.09
2018-02-12T03:31:43.922Z,94258.02
2018-02-12T03:34:47.248Z,94251.05
2018-02-12T03:37:50.517Z,94258.58
2018-02-12T03:40:53.780Z,94245.80
2018-02-12T03:43:57.045Z,94249.89
2018-02-12T03:47:00.312Z,94258.53
2018-02-12T03:50:03.757Z,94254.28
2018-02-12T03:53:07.788Z,94258.73
2018-02-12T03:56:11.064Z,94257.86
2018-02-12T03:59:15.104Z,94263.23
2018-02-12T04:02:18.375Z,94262.53
2018-02-12T04:05:22.398Z,94260.34
2018-02-12T04:08:26.437Z,94264.78
2018-02-12T04:11:29.705Z,94259.65
2018-02-12T04:14:33.332Z,94266.88
2018-02-12T04:17:37.402Z,94256.98
2018-02-12T04:20:40.659Z,94256.45
2018-02-12T04:23:43.926Z,94255.94
2018-02-12T04:26:47.952Z,94248.66
2018-02-12T04:29:51.222Z,94248.98
2018-02-12T04:32:54.485Z,94242.18
2018-02-12T04:35:57.941Z,94238.92
2018-02-12T04:39:01.220Z,94238.31
2018-02-12T04:42:04.481Z,94232.47
2018-02-12T04:45:07.746Z,94239.77
2018-02-12T04:48:11.027Z,94242.38
2018-02-12T04:51:15.067Z,94243.91
2018-02-12T04:54:18.344Z,94243.25
2018-02-12T04:57:21.611Z,94241.23
2018-02-12T05:00:26.373Z,94244.73
2018-02-12T05:03:29.649Z,94244.63
2018-02-12T05:06:32.902Z,94250.42
2018-02-12T05:09:36.944Z,94244.88
2018-02-12T05:12:40.206Z,94255.14
2018-02-12T05:15:43.469Z,94253.45
2018-02-12T05:18:47.514Z,94258.88
2018-02-12T05:21:50.764Z,94257.03
2018-02-12T05:24:54.798Z,94270.31
2018-02-12T05:27:58.140Z,94273.03
2018-02-12T05:31:01.398Z,94281.95
2018-02-12T05:34:05.906Z,94284.19
2018-02-12T05:37:09.962Z,94285.44
2018-02-12T05:40:13.240Z,94287.03
2018-02-12T05:43:16.507Z,94287.52
2018-02-12T05:46:19.829Z,94282.36
2018-02-12T05:49:23.106Z,94297.28
2018-02-12T05:52:27.136Z,94299.55
2018-02-12T05:55:30.417Z,94297.27
2018-02-12T05:58:34.447Z,94297.96
2018-02-12T06:01:38.477Z,94292.28
2018-02-12T06:04:41.749Z,94301.64
2018-02-12T06:07:45.773Z,94303.84
2018-02-12T06:11:06.083Z,94304.67
2018-02-12T06:14:10.356Z,94314.32
2018-02-12T06:17:13.634Z,94308.17
2018-02-12T06:20:17.021Z,94323.22
2018-02-12T06:23:20.274Z,94325.42
2018-02-12T06:26:24.305Z,94332.08
2018-02-12T06:29:27.877Z,94347.92
2018-02-12T06:32:31.145Z,94351.83
2018-02-12T06:35:34.415Z,94356.97
2018-02-12T06:38:39.021Z,94358.77
2018-02-12T06:41:43.045Z,94370.52
2018-02-12T06:44:46.307Z,94373.41
2018-02-12T06:47:49.594Z,94378.45
2018-02-12T06:50:52.865Z,94386.67
2018-02-12T06:53:56.135Z,94393.94
2018-02-12T06:56:59.415Z,94399.05
2018-02-12T07:00:03.472Z,94404.31
2018-02-12T07:03:06.753Z,94407.96
2018-02-12T07:06:10.021Z,94410.92
2018-02-12T07:09:14.149Z,94416.11
2018-02-12T07:12:17.430Z,94424.08
2018-02-12T07:15:20.868Z,94422.91
2018-02-12T07:18:24.132Z,94432.45
2018-02-12T07:21:28.168Z,94432.72
2018-02-12T07:24:31.430Z,94437.84
2018-02-12T07:27:34.718Z,94445.34
2018-02-12T07:30:37.985Z,94450.30
2018-02-12T07:33:41.250Z,94449.59
2018-02-12T07:36:44.532Z,94451.25
2018-02-12T07:39:48.350Z,94457.94
2018-02-12T07:42:52.382Z,94465.25
2018-02-12T07:45:55.644Z,94478.31
2018-02-12T07:48:58.917Z,94482.34
2018-02-12T07:52:02.204Z,94487.39
2018-02-12T07:55:05.470Z,94491.88
2018-02-12T07:58:08.757Z,94495.02
2018-02-12T08:01:12.041Z,94503.59
2018-02-12T08:04:15.386Z,94514.54
2018-02-12T08:07:20.526Z,94511.89
2018-02-12T08:10:24.315Z,94521.78
2018-02-12T08:13:27.640Z,94517.95
2018-02-12T08:16:30.912Z,94527.17
2018-02-12T08:19:35.030Z,94524.88
2018-02-12T08:22:39.134Z,94524.02
2018-02-12T08:25:43.163Z,94528.72
2018-02-12T08:28:46.445Z,94534.19
2018-02-12T08:31:50.481Z,94532.89
2018-02-12T08:34:53.740Z,94543.31
2018-02-12T08:37:57.032Z,94549.03
2018-02-12T08:41:00.307Z,94543.45
2018-02-12T08:44:03.589Z,94551.90
2018-02-12T08:47:06.905Z,94554.83
2018-02-12T08:50:10.210Z,94559.31
2018-02-12T08:53:13.457Z,94569.14
2018-02-12T08:56:16.747Z,94568.77
2018-02-12T08:59:20.029Z,94570.39
2018-02-12T09:02:24.059Z,94573.83
2018-02-12T09:05:28.096Z,94573.14
2018-02-12T09:08:31.451Z,94577.23
2018-02-12T09:11:35.520Z,94578.65
2018-02-12T09:14:38.801Z,94588.65
2018-02-12T09:17:42.066Z,94592.91
2018-02-12T09:20:45.370Z,94593.57
2018-02-12T09:23:48.605Z,94595.39
2018-02-12T09:26:51.902Z,94593.12
2018-02-12T09:29:55.191Z,94591.02
2018-02-12T09:32:58.461Z,94601.97
2018-02-12T09:36:02.517Z,94609.45
2018-02-12T09:39:05.882Z,94608.95
2018-02-12T09:42:09.913Z,94609.66
2018-02-12T09:45:14.432Z,94610.94
2018-02-12T09:48:17.690Z,94614.23
2018-02-12T09:51:20.972Z,94619.08
2018-02-12T09:54:24.232Z,94617.46
2018-02-12T09:57:27.505Z,94617.83
2018-02-12T10:00:31.540Z,94618.76
2018-02-12T10:03:35.243Z,94623.36
2018-02-12T10:06:39.463Z,94627.83
2018-02-12T10:09:42.721Z,94634.97
2018-02-12T10:12:45.985Z,94635.20
2018-02-12T10:15:49.254Z,94627.42
2018-02-12T10:18:52.508Z,94629.30
2018-02-12T10:21:55.786Z,94634.13
2018-02-12T10:24:59.057Z,94637.75
2018-02-12T10:28:02.393Z,94634.89
2018-02-12T10:31:06.465Z,94636.73
2018-02-12T10:34:09.785Z,94640.89
2018-02-12T10:37:13.063Z,94641.71
2018-02-12T10:40:16.558Z,94649.86
2018-02-12T10:43:19.815Z,94645.79
2018-02-12T10:46:23.074Z,94648.92
2018-02-12T10:49:26.737Z,94646.16
2018-02-12T10:52:30.786Z,94641.86
2018-02-12T10:55:34.072Z,94641.66
2018-02-12T10:58:37.358Z,94646.98
2018-02-12T11:01:40.629Z,94654.03
2018-02-12T11:04:43.895Z,94647.33
2018-02-12T11:07:48.386Z,94656.23
2018-02-12T11:10:51.671Z,94668.23
2018-02-12T11:13:55.712Z,94665.97
2018-02-12T11:16:58.988Z,94668.01
2018-02-12T11:20:02.259Z,94672.10
2018-02-12T11:23:05.534Z,94671.20
2018-02-12T11:26:08.805Z,94671.06
2018-02-12T11:29:12.072Z,94677.28
2018-02-12T11:32:15.333Z,94670.55
2018-02-12T11:35:18.830Z,94673.81
2018-02-12T11:38:22.109Z,94679.96
2018-02-12T11:41:25.371Z,94682.55
2018-02-12T11:44:28.628Z,94679.52
2018-02-12T11:47:31.900Z,94683.28
2018-02-12T11:50:35.208Z,94681.63
2018-02-12T11:53:38.494Z,94678.20
2018-02-12T11:56:41.793Z,94684.28
2018-02-12T11:59:45.097Z,94678.05
2018-02-12T12:02:49.581Z,94684.55
2018-02-12T12:05:53.004Z,94678.29
2018-02-12T12:08:56.483Z,94682.77
2018-02-12T12:11:59.918Z,94684.76
2018-02-12T12:15:03.264Z,94693.48
2018-02-12T12:18:07.292Z,94687.59
2018-02-12T12:21:10.588Z,94688.34
2018-02-12T12:24:13.853Z,94697.84
2018-02-12T12:27:17.126Z,94694.76
2018-02-12T12:30:21.665Z,94697.14
2018-02-12T12:33:24.918Z,94700.48
2018-02-12T12:36:28.179Z,94693.89
2018-02-12T12:39:31.452Z,94696.84
2018-02-12T12:42:34.728Z,94699.23
2018-02-12T12:45:37.997Z,94699.79
2018-02-12T12:48:42.059Z,94696.37
2018-02-12T12:51:45.340Z,94693.14
2018-02-12T12:54:48.789Z,94701.94
2018-02-12T12:57:52.371Z,94704.36
2018-02-12T13:00:55.637Z,94702.91
2018-02-12T13:03:58.901Z,94716.95
2018-02-12T13:07:02.963Z,94703.06
2018-02-12T13:10:06.361Z,94705.17
2018-02-12T13:13:09.636Z,94701.69
2018-02-12T13:16:12.914Z,94704.63
2018-02-12T13:19:16.986Z,94707.92
2018-02-12T13:22:20.263Z,94704.67
2018-02-12T13:25:23.538Z,94703.76
2018-02-12T13:28:26.877Z,94704.05
2018-02-12T13:31:30.909Z,94701.73
2018-02-12T13:34:34.288Z,94706.06
2018-02-12T13:37:37.584Z,94704.80
2018-02-12T13:40:40.851Z,94700.31
2018-02-12T13:43:44.124Z,94705.83
2018-02-12T13:46:48.167Z,94706.70
2018-02-12T13:49:51.447Z,94710.69
2018-02-12T13:52:55.690Z,94709.34
2018-02-12T13:55:58.974Z,94709.94
2018-02-12T13:59:02.244Z,94710.27
2018-02-12T14:02:06.297Z,94711.87
2018-02-12T14:05:09.569Z,94715.43
2018-02-12T14:08:13.614Z,94710.86
2018-02-12T14:11:16.889Z,94718.59
2018-02-12T14:14:20.173Z,94722.77
2018-02-12T14:17:24.430Z,94725.88
2018-02-12T14:20:27.989Z,94740.21
2018-02-12T14:23:31.247Z,94762.10
2018-02-12T14:26:34.575Z,94763.68
2018-02-12T14:29:37.840Z,94757.18
2018-02-12T14:32:41.122Z,94757.53
2018-02-12T14:35:44.388Z,94758.76
2018-02-12T14:38:48.416Z,94755.73
2018-02-12T14:41:51.689Z,94755.35
2018-02-12T14:44:55.774Z,94758.45
2018-02-12T14:47:59.358Z,94760.41
2018-02-12T14:51:02.650Z,94758.53
2018-02-12T14:54:05.937Z,94752.59
2018-02-12T14:57:09.338Z,94758.02
2018-02-12T15:00:12.715Z,94758.73
2018-02-12T15:03:16.750Z,94764.21
2018-02-12T15:06:20.028Z,94760.38
2018-02-12T15:09:25.415Z,94763.51
2018-02-12T15:12:28.875Z,94767.75
2018-02-12T15:15:32.926Z,94770.11
2018-02-12T15:18:36.314Z,94780.06
2018-02-12T15:21:39.592Z,94776.98
2018-02-12T15:24:42.879Z,94773.99
2018-02-12T15:27:46.946Z,94777.05
2018-02-12T15:30:50.217Z,94774.86
2018-02-12T15:33:53.481Z,94779.60
2018-02-12T15:36:56.745Z,94780.52
2018-02-12T15:40:00.258Z,94782.08
2018-02-12T15:43:03.533Z,94787.76
2018-02-12T15:46:06.794Z,94787.84
2018-02-12T15:49:10.085Z,94791.20
2018-02-12T15:52:14.125Z,94800.34
2018-02-12T15:55:17.394Z,94801.13
2018-02-12T15:58:21.417Z,94803.00
2018-02-12T16:01:25.991Z,94805.78
2018-02-12T16:04:29.279Z,94812.48
2018-02-12T16:07:32.537Z,94819.02
2018-02-12T16:10:35.821Z,94814.08
2018-02-12T16:13:39.838Z,94821.42
2018-02-12T16:16:43.890Z,94820.94
2018-02-12T16:19:47.197Z,94825.14
2018-02-12T16:22:50.456Z,94818.39
2018-02-12T16:25:53.730Z,94824.53
2018-02-12T16:28:57.010Z,94828.05
2018-02-12T16:32:00.283Z,94833.55
2018-02-12T16:35:03.564Z,94833.05
2018-02-12T16:38:06.945Z,94836.19
2018-02-12T16:41:10.990Z,94842.33
2018-02-12T16:44:14.272Z,94846.13
2018-02-12T16:47:17.701Z,94848.73
2018-02-12T16:50:20.965Z,94852.00
2018-02-12T16:53:24.332Z,94855.38
2018-02-12T16:56:27.606Z,94860.88
2018-02-12T16:59:31.982Z,94862.17
2018-02-12T17:02:35.268Z,94872.63
2018-02-12T17:05:39.294Z,94871.97
2018-02-12T17:08:42.580Z,94877.95
2018-02-12T17:11:46.632Z,94872.61
2018-02-12T17:14:49.985Z,94879.53
2018-02-12T17:17:53.521Z,94884.73
2018-02-12T17:20:58.577Z,94890.88
2018-02-12T17:24:01.856Z,94893.20
2018-02-12T17:27:05.166Z,94901.81
2018-02-12T17:30:08.446Z,94911.99
2018-02-12T17:33:11.718Z,94917.20
2018-02-12T17:36:15.929Z,94916.41
2018-02-12T17:39:19.345Z,94911.64
2018-02-12T17:42:23.399Z,94916.37
2018-02-12T17:45:26.726Z,94915.53
2018-02-12T17:48:30.098Z,94927.52
2018-02-12T17:51:33.513Z,94925.36
2018-02-12T17:54:37.166Z,94925.97
2018-02-12T17:57:40.792Z,94933.59
2018-02-12T18:00:44.717Z,94941.72
2018-02-12T18:03:50.258Z,94946.84
2018-02-12T18:06:53.841Z,94945.81
2018-02-12T18:09:57.648Z,94947.86
2018-02-12T18:13:01.271Z,94950.30
2018-02-12T18:16:05.127Z,94941.97
2018-02-12T18:19:09.514Z,94948.88
2018-02-12T18:22:13.155Z,94953.05
2018-02-12T18:25:16.718Z,94951.08
2018-02-12T18:28:21.848Z,94952.47
2018-02-12T18:31:25.297Z,94953.64
2018-02-12T18:34:29.688Z,94953.42
2018-02-12T18:37:34.112Z,94952.43
2018-02-12T18:40:37.715Z,94959.96
2018-02-12T18:43:41.141Z,94962.13
2018-02-12T18:46:45.701Z,94965.07
2018-02-12T18:49:50.259Z,94963.08
2018-02-12T18:52:53.887Z,94964.73
2018-02-12T18:55:57.442Z,94972.95
2018-02-12T18:59:01.096Z,94968.03
2018-02-12T19:02:05.527Z,94972.09
2018-02-12T19:05:10.084Z,94983.61
2018-02-12T19:08:14.328Z,94986.98
2018-02-12T19:11:17.981Z,94988.05
2018-02-12T19:14:21.627Z,94987.52
2018-02-12T19:17:25.141Z,94991.43
2018-02-12T19:20:28.954Z,94990.77
2018-02-12T19:23:32.644Z,94997.25
2018-02-12T19:26:35.945Z,95000.20
2018-02-12T19:29:40.121Z,95007.76
2018-02-12T19:32:43.400Z,95010.06
2018-02-12T19:35:46.739Z,95017.21
2018-02-12T19:38:50.073Z,95004.61
2018-02-12T19:41:53.430Z,95006.34
2018-02-12T19:44:56.697Z,95002.97
2018-02-12T19:48:00.042Z,95008.97
2018-02-12T19:51:03.325Z,95007.09
2018-02-12T19:54:06.605Z,95011.02
2018-02-12T19:57:09.875Z,95017.45
2018-02-12T20:00:13.188Z,95023.34
2018-02-12T20:03:16.483Z,95022.94
2018-02-12T20:06:19.769Z,95023.41
2018-02-12T20:09:23.057Z,95026.78
2018-02-12T20:12:26.316Z,95032.09
2018-02-12T20:15:29.639Z,95029.13
2018-02-12T20:18:33.673Z,95035.34
2018-02-12T20:21:37.253Z,95043.44
2018-02-12T20:24:41.308Z,95048.37
2018-02-12T20:27:44.577Z,95043.41
2018-02-12T20:30:47.937Z,95042.22
2018-02-12T20:33:51.209Z,95037.80
2018-02-12T20:36:55.253Z,95047.80
2018-02-12T20:39:58.551Z,95043.55
2018-02-12T20:43:01.841Z,95041.05
2018-02-12T20:46:05.125Z,95046.94
2018-02-12T20:49:08.418Z,95045.63
2018-02-12T20:52:11.698Z,95049.23
2018-02-12T20:55:14.987Z,95054.40
2018-02-12T20:58:19.348Z,95051.64
2018-02-12T21:01:22.632Z,95054.73
2018-02-12T21:04:26.726Z,95055.70
2018-02-12T21:07:30.044Z,95054.52
2018-02-12T21:10:51.972Z,95052.88
2018-02-12T21:13:57.660Z,95057.14
2018-02-12T21:17:01.197Z,95058.58
2018-02-12T21:20:04.522Z,95058.91
2018-02-12T21:23:07.791Z,95059.45
2018-02-12T21:26:11.833Z,95064.44
2018-02-12T21:29:15.118Z,95058.92
2018-02-12T21:32:18.414Z,95063.32
2018-02-12T21:35:21.707Z,95061.80
2018-02-12T21:38:25.041Z,95062.84
2018-02-12T21:41:28.455Z,95062.55
2018-02-12T21:44:31.804Z,95066.24
2018-02-12T21:47:35.153Z,95065.73
2018-02-12T21:50:41.190Z,95067.45
2018-02-12T21:53:44.470Z,95064.30
2018-02-12T21:56:47.765Z,95061.58
2018-02-12T21:59:51.058Z,95068.61
2018-02-12T22:02:54.339Z,95074.17
2018-02-12T22:05:58.446Z,95078.92
2018-02-12T22:09:02.503Z,95077.23
2018-02-12T22:12:05.873Z,95076.95
2018-02-12T22:15:09.175Z,95076.72
2018-02-12T22:18:13.212Z,95079.04
2018-02-12T22:21:16.483Z,95076.87
2018-02-12T22:24:20.516Z,95074.91
2018-02-12T22:27:23.793Z,95076.52
2018-02-12T22:30:27.833Z,95079.08
2018-02-12T22:33:31.311Z,95077.01
2018-02-12T22:36:35.348Z,95073.62
2018-02-12T22:39:39.200Z,95072.83
2018-02-12T22:42:43.405Z,95077.58
2018-02-12T22:45:46.768Z,95079.64
2018-02-12T22:48:50.040Z,95070.19
2018-02-12T22:51:53.321Z,95071.48
2018-02-12T22:54:56.595Z,95074.83
2018-02-12T22:57:59.872Z,95074.83
2018-02-12T23:01:03.249Z,95069.51
2018-02-12T23:04:07.281Z,95071.63
2018-02-12T23:07:10.625Z,95078.88
2018-02-12T23:10:13.901Z,95072.22
2018-02-12T23:13:17.193Z,95073.12
2018-02-12T23:16:20.469Z,95074.81
2018-02-12T23:19:23.751Z,95072.25
2018-02-12T23:22:27.801Z,95071.04
2018-02-12T23:25:31.081Z,95071.03
2018-02-12T23:28:34.346Z,95069.20
2018-02-12T23:31:38.439Z,95063.03
2018-02-12T23:34:42.540Z,95064.14
2018-02-12T23:37:45.861Z,95066.86
2018-02-12T23:40:49.139Z,95073.08
2018-02-12T23:43:52.485Z,95067.27
2018-02-12T23:46:55.870Z,95067.69
2018-02-12T23:49:59.141Z,95070.37
2018-02-12T23:53:02.413Z,95063.69
2018-02-12T23:56:05.882Z,95068.22
2018-02-12T23:59:09.944Z,95072.09
